createdAt,value
2022-08-09T00:01:19.682Z,3.88
2022-08-09T00:04:05.984Z,4.00
2022-08-09T00:06:36.463Z,3.97
2022-08-09T00:09:04.105Z,4.07
2022-08-09T00:12:02.523Z,4.30
2022-08-09T00:14:27.987Z,3.92
2022-08-09T00:17:05.898Z,3.70
2022-08-09T00:19:34.255Z,3.55
2022-08-09T00:22:04.385Z,3.90
2022-08-09T00:24:33.012Z,4.10
2022-08-09T00:27:02.159Z,3.72
2022-08-09T00:30:16.315Z,3.53
2022-08-09T00:32:25.761Z,3.63
2022-08-09T00:34:56.416Z,4.13
2022-08-09T00:37:24.589Z,3.63
2022-08-09T00:40:09.553Z,3.80
2022-08-09T00:44:14.426Z,3.75
2022-08-09T00:45:28.321Z,3.30
2022-08-09T00:47:56.044Z,3.20
2022-08-09T00:50:25.416Z,2.95
2022-08-09T00:52:55.118Z,3.10
2022-08-09T00:56:03.380Z,2.97
2022-08-09T00:58:14.664Z,2.90
2022-08-09T01:00:55.853Z,2.92
2022-08-09T01:04:19.240Z,3.10
2022-08-09T01:08:00.972Z,3.03
2022-08-09T01:10:36.505Z,3.60
2022-08-09T01:13:19.347Z,3.10
2022-08-09T01:15:56.738Z,3.40
2022-08-09T01:18:35.425Z,3.05
2022-08-09T01:21:51.225Z,3.10
2022-08-09T01:24:24.968Z,3.17
2022-08-09T01:27:13.407Z,3.17
2022-08-09T01:30:00.667Z,3.45
2022-08-09T01:32:46.114Z,2.85
2022-08-09T01:35:38.071Z,3.42
2022-08-09T01:38:18.857Z,3.33
2022-08-09T01:41:05.265Z,2.97
2022-08-09T01:43:51.974Z,3.05
2022-08-09T01:46:26.932Z,3.53
2022-08-09T01:49:10.285Z,3.53
2022-08-09T01:51:53.890Z,3.45
2022-08-09T01:54:28.220Z,3.20
2022-08-09T01:57:10.847Z,3.40
2022-08-09T01:59:52.054Z,3.53
2022-08-09T02:02:30.105Z,3.80
2022-08-09T02:05:05.451Z,3.50
2022-08-09T02:08:40.715Z,3.28
2022-08-09T02:10:51.041Z,3.13
2022-08-09T02:13:25.880Z,3.00
2022-08-09T02:16:07.921Z,3.13
2022-08-09T02:18:38.876Z,3.33
2022-08-09T02:21:22.290Z,3.10
2022-08-09T02:23:56.554Z,3.28
2022-08-09T02:26:30.028Z,3.97
2022-08-09T02:29:26.727Z,3.33
2022-08-09T02:32:01.022Z,3.17
2022-08-09T02:34:41.508Z,3.50
2022-08-09T02:37:31.796Z,3.80
2022-08-09T02:40:12.275Z,3.70
2022-08-09T02:42:44.744Z,3.83
2022-08-09T02:45:29.864Z,4.20
2022-08-09T02:48:04.439Z,4.40
2022-08-09T02:50:42.449Z,4.30
2022-08-09T02:53:26.690Z,4.45
2022-08-09T02:55:59.054Z,4.40
2022-08-09T02:58:37.173Z,4.38
2022-08-09T03:01:11.261Z,4.32
2022-08-09T03:04:17.659Z,4.45
2022-08-09T03:06:40.545Z,4.13
2022-08-09T03:09:10.572Z,4.50
2022-08-09T03:12:10.376Z,5.20
2022-08-09T03:14:31.949Z,4.90
2022-08-09T03:17:05.597Z,4.68
2022-08-09T03:19:58.027Z,4.82
2022-08-09T03:22:25.579Z,4.75
2022-08-09T03:25:06.408Z,4.63
2022-08-09T03:27:52.757Z,4.72
2022-08-09T03:30:30.129Z,4.53
2022-08-09T03:33:17.731Z,4.57
2022-08-09T03:36:13.287Z,4.65
2022-08-09T03:38:42.721Z,4.70
2022-08-09T03:41:16.637Z,5.30
2022-08-09T03:44:03.553Z,5.50
2022-08-09T03:46:35.349Z,5.00
2022-08-09T03:49:07.839Z,5.38
2022-08-09T03:51:55.106Z,4.68
2022-08-09T03:54:32.162Z,4.88
2022-08-09T03:57:18.570Z,5.50
2022-08-09T03:59:53.365Z,4.85
2022-08-09T04:02:28.011Z,5.25
2022-08-09T04:05:06.628Z,4.88
2022-08-09T04:07:52.702Z,5.63
2022-08-09T04:10:28.397Z,5.80
2022-08-09T04:13:11.518Z,5.20
2022-08-09T04:16:17.771Z,5.25
2022-08-09T04:18:28.273Z,5.45
2022-08-09T04:20:55.943Z,6.03
2022-08-09T04:23:24.989Z,6.18
2022-08-09T04:25:55.707Z,6.30
2022-08-09T04:31:09.548Z,6.35
2022-08-09T04:33:51.516Z,5.80
2022-08-09T04:36:28.850Z,6.10
2022-08-09T04:38:59.786Z,5.70
2022-08-09T04:41:32.408Z,5.60
2022-08-09T04:44:11.238Z,6.28
2022-08-09T04:46:58.604Z,5.60
2022-08-09T04:49:53.264Z,5.97
2022-08-09T04:52:32.449Z,5.68
2022-08-09T04:55:02.600Z,6.33
2022-08-09T04:57:54.103Z,5.80
2022-08-09T05:00:20.265Z,5.80
2022-08-09T05:02:51.787Z,6.35
2022-08-09T05:05:32.428Z,6.40
2022-08-09T05:08:14.011Z,5.45
2022-08-09T05:10:43.295Z,6.38
2022-08-09T05:13:12.945Z,7.38
2022-08-09T05:15:48.051Z,6.30
2022-08-09T05:18:39.320Z,6.40
2022-08-09T05:21:13.404Z,5.43
2022-08-09T05:24:00.555Z,5.45
2022-08-09T05:26:37.192Z,5.85
2022-08-09T05:29:21.595Z,5.28
2022-08-09T05:31:57.186Z,5.97
2022-08-09T05:34:31.328Z,6.65
2022-08-09T05:37:07.224Z,7.22
2022-08-09T05:39:43.128Z,5.72
2022-08-09T05:42:17.854Z,5.65
2022-08-09T05:44:54.885Z,5.63
2022-08-09T05:47:24.906Z,5.70
2022-08-09T05:50:26.049Z,4.68
2022-08-09T05:52:53.833Z,5.28
2022-08-09T05:55:24.135Z,5.05
2022-08-09T06:00:28.744Z,5.38
2022-08-09T06:03:04.101Z,5.30
2022-08-09T06:05:58.216Z,6.10
2022-08-09T06:08:26.338Z,5.80
2022-08-09T06:10:56.978Z,5.15
2022-08-09T06:13:28.588Z,5.18
2022-08-09T06:16:04.810Z,4.32
2022-08-09T06:18:34.417Z,4.35
2022-08-09T06:21:04.351Z,4.18
2022-08-09T06:23:57.248Z,4.50
2022-08-09T06:26:28.658Z,4.05
2022-08-09T06:28:59.456Z,4.47
2022-08-09T06:31:31.551Z,4.13
2022-08-09T06:34:08.234Z,4.40
2022-08-09T06:36:37.620Z,4.10
2022-08-09T06:39:12.633Z,3.75
2022-08-09T06:42:08.549Z,4.70
2022-08-09T06:44:31.692Z,4.65
2022-08-09T06:46:59.761Z,4.03
2022-08-09T06:49:44.687Z,3.47
2022-08-09T06:52:15.617Z,3.80
2022-08-09T06:54:44.285Z,3.50
2022-08-09T06:57:14.887Z,3.60
2022-08-09T07:00:51.561Z,3.60
2022-08-09T07:02:32.452Z,3.83
2022-08-09T07:05:01.635Z,3.70
2022-08-09T07:07:59.772Z,3.47
2022-08-09T07:10:29.365Z,4.72
2022-08-09T07:13:00.026Z,4.55
2022-08-09T07:16:38.788Z,4.03
2022-08-09T07:18:21.166Z,3.40
2022-08-09T07:20:50.924Z,3.00
2022-08-09T07:23:20.028Z,3.28
2022-08-09T07:25:52.308Z,3.72
2022-08-09T07:28:28.086Z,3.40
2022-08-09T07:30:56.231Z,2.47
2022-08-09T07:33:23.889Z,2.80
2022-08-09T07:35:54.291Z,2.67
2022-08-09T07:38:23.676Z,2.45
2022-08-09T07:41:09.806Z,2.33
2022-08-09T07:43:41.036Z,2.40
2022-08-09T07:46:19.461Z,1.85
2022-08-09T07:48:52.758Z,2.30
2022-08-09T07:52:03.732Z,2.92
2022-08-09T07:54:27.556Z,2.72
2022-08-09T07:56:56.158Z,3.22
2022-08-09T07:59:34.617Z,2.97
2022-08-09T08:02:19.443Z,2.72
2022-08-09T08:04:49.221Z,3.22
2022-08-09T08:08:44.514Z,2.85
2022-08-09T08:10:10.987Z,2.92
2022-08-09T08:12:45.205Z,3.35
2022-08-09T08:15:24.138Z,3.35
2022-08-09T08:17:58.347Z,3.38
2022-08-09T08:20:32.429Z,2.85
2022-08-09T08:23:16.729Z,3.03
2022-08-09T08:25:53.975Z,3.05
2022-08-09T08:28:35.071Z,2.90
2022-08-09T08:31:13.826Z,3.13
2022-08-09T08:33:52.794Z,3.08
2022-08-09T08:36:28.724Z,2.63
2022-08-09T08:38:57.453Z,3.30
2022-08-09T08:41:41.867Z,3.88
2022-08-09T08:44:15.591Z,4.90
2022-08-09T08:47:02.689Z,3.33
2022-08-09T08:49:46.465Z,2.78
2022-08-09T08:55:08.451Z,2.92
2022-08-09T08:57:37.660Z,3.25
2022-08-09T09:00:20.278Z,3.15
2022-08-09T09:03:10.411Z,3.13
2022-08-09T09:06:00.832Z,2.60
2022-08-09T09:08:38.110Z,2.70
2022-08-09T09:13:56.971Z,2.47
2022-08-09T09:16:34.056Z,2.33
2022-08-09T09:19:40.852Z,2.65
2022-08-09T09:22:07.771Z,2.40
2022-08-09T09:24:47.256Z,2.35
2022-08-09T09:28:06.700Z,2.28
2022-08-09T09:30:31.533Z,2.20
2022-08-09T09:33:16.378Z,2.20
2022-08-09T09:36:11.713Z,2.25
2022-08-09T09:38:57.261Z,1.83
2022-08-09T09:41:27.937Z,1.88
2022-08-09T09:44:11.928Z,2.58
2022-08-09T09:46:45.967Z,1.88
2022-08-09T09:49:56.202Z,1.70
2022-08-09T09:52:16.347Z,1.67
2022-08-09T09:55:28.337Z,1.98
2022-08-09T09:58:15.860Z,1.85
2022-08-09T10:00:59.155Z,2.03
2022-08-09T10:03:44.829Z,1.73
2022-08-09T10:06:32.055Z,1.70
2022-08-09T10:09:11.772Z,1.60
2022-08-09T10:12:14.635Z,1.60
2022-08-09T10:14:51.758Z,1.60
2022-08-09T10:20:33.053Z,1.48
2022-08-09T10:23:23.817Z,1.67
2022-08-09T10:26:07.981Z,1.48
2022-08-09T10:28:41.765Z,1.45
2022-08-09T10:34:10.594Z,1.92
2022-08-09T10:36:57.194Z,1.70
2022-08-09T10:39:28.255Z,1.50
2022-08-09T10:41:57.165Z,1.52
2022-08-09T10:44:30.533Z,1.80
2022-08-09T10:48:26.217Z,1.52
2022-08-09T10:51:06.964Z,1.45
2022-08-09T10:54:06.003Z,1.50
2022-08-09T10:56:43.044Z,1.42
2022-08-09T10:59:30.715Z,1.40
2022-08-09T11:03:15.933Z,1.95
2022-08-09T11:05:25.461Z,1.45
2022-08-09T11:08:53.496Z,1.35
2022-08-09T11:11:23.708Z,1.10
2022-08-09T11:14:55.980Z,1.38
2022-08-09T11:17:25.449Z,1.40
2022-08-09T11:20:10.532Z,1.40
2022-08-09T11:22:55.469Z,1.77
2022-08-09T11:25:44.935Z,1.30
2022-08-09T11:28:38.284Z,1.83
2022-08-09T11:31:49.536Z,1.65
2022-08-09T11:34:34.090Z,1.70
2022-08-09T11:37:07.476Z,1.48
2022-08-09T11:40:09.318Z,1.55
2022-08-09T11:42:55.353Z,1.67
2022-08-09T11:45:43.479Z,2.05
2022-08-09T11:48:30.406Z,1.50
2022-08-09T11:53:00.624Z,1.58
2022-08-09T11:54:21.399Z,1.52
2022-08-09T11:57:47.493Z,1.42
2022-08-09T12:00:33.283Z,3.47
2022-08-09T12:03:50.282Z,1.55
2022-08-09T12:05:53.598Z,1.33
2022-08-09T12:08:24.655Z,1.52
2022-08-09T12:11:00.129Z,1.80
2022-08-09T12:14:10.868Z,1.63
2022-08-09T12:16:38.277Z,1.70
2022-08-09T12:19:10.031Z,1.80
2022-08-09T12:21:51.550Z,1.70
2022-08-09T12:29:14.241Z,1.58
2022-08-09T12:30:04.257Z,1.58
2022-08-09T12:32:44.968Z,1.83
2022-08-09T12:35:19.489Z,1.52
2022-08-09T12:37:51.987Z,1.88
2022-08-09T12:40:25.020Z,2.03
2022-08-09T12:42:54.730Z,1.88
2022-08-09T12:45:34.534Z,2.53
2022-08-09T12:48:30.867Z,1.63
2022-08-09T12:51:03.844Z,2.13
2022-08-09T12:53:37.056Z,1.90
2022-08-09T12:56:43.848Z,2.13
2022-08-09T12:59:16.768Z,1.73
2022-08-09T13:01:50.245Z,2.13
2022-08-09T13:04:37.559Z,1.80
2022-08-09T13:07:50.817Z,1.90
2022-08-09T13:10:13.941Z,2.17
2022-08-09T13:13:10.022Z,1.95
2022-08-09T13:15:51.754Z,1.90
2022-08-09T13:18:27.196Z,1.77
2022-08-09T13:22:34.222Z,1.38
2022-08-09T13:24:17.050Z,1.95
2022-08-09T13:26:42.294Z,1.88
2022-08-09T13:29:19.516Z,1.80
2022-08-09T13:32:17.273Z,1.80
2022-08-09T13:34:50.619Z,1.92
2022-08-09T13:37:50.501Z,1.65
2022-08-09T13:41:54.738Z,2.00
2022-08-09T13:42:59.097Z,1.88
2022-08-09T13:45:32.200Z,1.80
2022-08-09T13:48:14.778Z,1.88
2022-08-09T13:50:43.680Z,2.20
2022-08-09T13:53:11.660Z,2.10
2022-08-09T13:55:41.250Z,2.08
2022-08-09T13:58:13.817Z,1.65
2022-08-09T14:00:50.574Z,2.63
2022-08-09T14:04:05.177Z,2.35
2022-08-09T14:06:19.415Z,2.35
2022-08-09T14:08:54.788Z,1.80
2022-08-09T14:11:23.214Z,1.77
2022-08-09T14:14:23.239Z,2.08
2022-08-09T14:16:40.203Z,1.73
2022-08-09T14:19:08.346Z,1.90
2022-08-09T14:21:36.403Z,1.40
2022-08-09T14:24:18.706Z,1.50
2022-08-09T14:26:51.766Z,1.75
2022-08-09T14:29:25.544Z,1.35
2022-08-09T14:32:11.139Z,1.52
2022-08-09T14:34:42.062Z,1.60
2022-08-09T14:37:10.491Z,1.75
2022-08-09T14:39:46.536Z,1.55
2022-08-09T14:42:32.120Z,1.48
2022-08-09T14:46:40.121Z,1.40
2022-08-09T14:48:02.556Z,1.58
2022-08-09T14:50:34.666Z,1.40
2022-08-09T14:53:11.704Z,1.40
2022-08-09T14:55:47.808Z,1.67
2022-08-09T14:58:19.822Z,1.50
2022-08-09T15:03:21.034Z,1.75
2022-08-09T15:05:52.447Z,1.60
2022-08-09T15:08:25.033Z,1.73
2022-08-09T15:11:00.742Z,2.15
2022-08-09T15:13:56.389Z,1.85
2022-08-09T15:16:21.616Z,1.80
2022-08-09T15:18:52.235Z,1.50
2022-08-09T15:21:57.883Z,1.80
2022-08-09T15:24:17.487Z,1.50
2022-08-09T15:26:53.422Z,1.65
2022-08-09T15:30:55.610Z,1.75
2022-08-09T15:32:38.971Z,1.58
2022-08-09T15:35:00.571Z,2.22
2022-08-09T15:37:37.737Z,1.83
2022-08-09T15:40:11.856Z,2.05
2022-08-09T15:42:42.633Z,1.92
2022-08-09T15:45:14.737Z,2.03
2022-08-09T15:48:01.842Z,1.77
2022-08-09T15:50:32.606Z,2.10
2022-08-09T15:53:06.559Z,1.88
2022-08-09T15:56:11.113Z,1.90
2022-08-09T15:58:26.707Z,1.80
2022-08-09T16:00:56.696Z,1.88
2022-08-09T16:03:29.759Z,1.85
2022-08-09T16:06:29.476Z,1.75
2022-08-09T16:09:00.897Z,1.88
2022-08-09T16:11:30.979Z,1.90
2022-08-09T16:14:06.907Z,2.10
2022-08-09T16:16:39.056Z,1.88
2022-08-09T16:19:13.489Z,1.77
2022-08-09T16:21:48.602Z,1.90
2022-08-09T16:24:30.290Z,1.92
2022-08-09T16:27:04.919Z,1.77
2022-08-09T16:29:36.648Z,2.38
2022-08-09T16:32:19.578Z,2.10
2022-08-09T16:34:57.802Z,2.17
2022-08-09T16:37:53.894Z,2.20
2022-08-09T16:40:29.781Z,1.90
2022-08-09T16:43:07.342Z,2.15
2022-08-09T16:45:43.637Z,2.08
2022-08-09T16:48:50.323Z,2.15
2022-08-09T16:51:08.133Z,2.22
2022-08-09T16:54:09.062Z,2.00
2022-08-09T16:56:33.775Z,2.20
2022-08-09T16:59:06.873Z,1.90
2022-08-09T17:01:39.202Z,2.22
2022-08-09T17:04:25.513Z,2.30
2022-08-09T17:08:40.909Z,2.33
2022-08-09T17:09:47.511Z,2.20
2022-08-09T17:12:17.038Z,2.30
2022-08-09T17:14:48.017Z,2.47
2022-08-09T17:17:27.181Z,2.30
2022-08-09T17:20:32.633Z,2.33
2022-08-09T17:22:51.745Z,2.75
2022-08-09T17:25:23.366Z,3.20
2022-08-09T17:27:55.142Z,2.85
2022-08-09T17:30:30.932Z,2.53
2022-08-09T17:33:22.421Z,2.80
2022-08-09T17:35:51.633Z,2.60
2022-08-09T17:38:30.967Z,2.70
2022-08-09T17:41:03.325Z,3.38
2022-08-09T17:43:36.995Z,3.83
2022-08-09T17:46:09.155Z,2.83
2022-08-09T17:48:51.767Z,2.67
2022-08-09T17:51:22.152Z,2.97
2022-08-09T17:53:55.452Z,3.17
2022-08-09T17:56:35.568Z,3.85
2022-08-09T17:59:11.353Z,3.38
2022-08-09T18:02:06.197Z,2.95
2022-08-09T18:04:33.404Z,3.25
2022-08-09T18:07:07.500Z,2.80
2022-08-09T18:09:41.501Z,3.20
2022-08-09T18:12:19.509Z,3.28
2022-08-09T18:18:43.126Z,6.55
2022-08-09T18:21:23.503Z,3.70
2022-08-09T18:24:12.835Z,3.70
2022-08-09T18:26:48.228Z,3.60
2022-08-09T18:30:40.267Z,3.42
2022-08-09T18:32:07.541Z,3.90
2022-08-09T18:34:36.569Z,4.55
2022-08-09T18:37:10.398Z,3.88
2022-08-09T18:39:57.713Z,3.60
2022-08-09T18:42:29.224Z,3.88
2022-08-09T18:45:00.779Z,3.50
2022-08-09T18:47:32.808Z,3.70
2022-08-09T18:50:10.041Z,3.55
2022-08-09T18:52:42.839Z,4.20
2022-08-09T18:55:13.618Z,3.63
2022-08-09T18:57:46.169Z,3.70
2022-08-09T19:00:20.235Z,3.63
2022-08-09T19:02:51.155Z,4.40
2022-08-09T19:05:48.852Z,4.82
2022-08-09T19:10:48.093Z,9.05
2022-08-09T19:13:23.173Z,7.45
2022-08-09T19:16:04.711Z,5.53
2022-08-09T19:18:38.473Z,5.90
2022-08-09T19:21:10.482Z,5.60
2022-08-09T19:24:33.574Z,5.22
2022-08-09T19:26:34.742Z,7.07
2022-08-09T19:29:18.194Z,6.20
2022-08-09T19:31:51.549Z,6.65
2022-08-09T19:34:24.799Z,4.97
2022-08-09T19:37:00.612Z,4.88
2022-08-09T19:40:02.004Z,5.43
2022-08-09T19:42:19.485Z,5.05
2022-08-09T19:44:50.701Z,6.90
2022-08-09T19:47:23.402Z,13.23
2022-08-09T19:50:48.027Z,11.25
2022-08-09T19:52:51.997Z,8.77
2022-08-09T19:55:30.803Z,9.13
2022-08-09T19:58:16.047Z,8.65
2022-08-09T20:00:47.439Z,8.93
2022-08-09T20:04:17.100Z,10.48
2022-08-09T20:06:10.543Z,11.07
2022-08-09T20:08:55.482Z,10.73
2022-08-09T20:11:43.362Z,7.10
2022-08-09T20:14:17.192Z,5.85
2022-08-09T20:19:49.516Z,6.85
2022-08-09T20:22:13.964Z,6.15
2022-08-09T20:24:53.452Z,6.15
2022-08-09T20:29:51.839Z,6.57
2022-08-09T20:32:30.727Z,6.93
2022-08-09T20:35:05.790Z,6.25
2022-08-09T20:37:37.747Z,5.50
2022-08-09T20:40:28.065Z,6.03
2022-08-09T20:43:12.528Z,7.38
2022-08-09T20:45:56.765Z,8.20
2022-08-09T20:48:29.751Z,11.35
2022-08-09T20:51:19.113Z,13.65
2022-08-09T20:53:48.850Z,13.45
2022-08-09T20:56:21.867Z,9.90
2022-08-09T20:58:58.911Z,9.38
2022-08-09T21:01:34.954Z,8.18
2022-08-09T21:05:53.877Z,8.55
2022-08-09T21:07:12.060Z,7.55
2022-08-09T21:09:56.597Z,6.75
2022-08-09T21:15:23.560Z,5.85
2022-08-09T21:18:21.374Z,6.63
2022-08-09T21:20:43.488Z,5.75
2022-08-09T21:23:18.808Z,6.63
2022-08-09T21:25:54.011Z,6.88
2022-08-09T21:28:34.931Z,6.70
2022-08-09T21:31:19.542Z,6.93
2022-08-09T21:33:53.126Z,6.57
2022-08-09T21:36:28.514Z,6.72
2022-08-09T21:38:59.545Z,6.15
2022-08-09T21:42:00.326Z,6.38
2022-08-09T21:44:33.461Z,6.65
2022-08-09T21:47:07.858Z,6.68
2022-08-09T21:49:39.722Z,6.50
2022-08-09T21:52:20.262Z,6.63
2022-08-09T21:55:03.085Z,6.60
2022-08-09T21:57:58.949Z,6.65
2022-08-09T22:00:33.363Z,6.57
2022-08-09T22:03:19.409Z,6.65
2022-08-09T22:05:54.820Z,5.80
2022-08-09T22:08:27.611Z,6.82
2022-08-09T22:11:50.291Z,6.57
2022-08-09T22:13:44.654Z,6.30
2022-08-09T22:16:12.985Z,6.25
2022-08-09T22:18:53.371Z,6.25
2022-08-09T22:21:49.996Z,6.57
2022-08-09T22:24:24.096Z,6.57
2022-08-09T22:26:54.286Z,6.15
2022-08-09T22:29:28.852Z,6.88
2022-08-09T22:32:02.674Z,6.80
2022-08-09T22:34:30.346Z,7.40
2022-08-09T22:36:59.579Z,6.68
2022-08-09T22:39:57.658Z,6.80
2022-08-09T22:42:22.152Z,6.70
2022-08-09T22:45:00.537Z,6.80
2022-08-09T22:48:13.476Z,6.95
2022-08-09T22:50:32.839Z,6.80
2022-08-09T22:53:04.023Z,6.67
2022-08-09T22:56:06.524Z,7.38
2022-08-09T22:58:32.856Z,7.30
2022-08-09T23:01:06.212Z,7.50
2022-08-09T23:04:03.491Z,7.47
2022-08-09T23:06:35.575Z,7.38
2022-08-09T23:09:07.609Z,7.03
2022-08-09T23:11:35.550Z,6.47
2022-08-09T23:14:04.129Z,6.63
2022-08-09T23:16:38.235Z,7.10
2022-08-09T23:19:05.876Z,6.90
2022-08-09T23:21:33.862Z,7.00
2022-08-09T23:24:06.211Z,6.55
2022-08-09T23:26:39.410Z,7.00
2022-08-09T23:29:11.689Z,6.82
2022-08-09T23:31:41.310Z,6.60
2022-08-09T23:34:09.520Z,7.28
2022-08-09T23:36:37.493Z,7.00
2022-08-09T23:39:07.852Z,7.20
2022-08-09T23:41:36.148Z,7.10
2022-08-09T23:44:04.890Z,8.10
2022-08-09T23:46:33.325Z,7.50
2022-08-09T23:49:01.639Z,7.72
2022-08-09T23:51:29.491Z,7.78
2022-08-09T23:54:02.511Z,8.27
2022-08-09T23:56:52.324Z,8.50
2022-08-09T23:59:24.044Z,8.57
